Language selection

Features

My Weather Profile Weather Topics  | 

Ungava - eastern half: Past 24 Hour Conditions

 

Arviat Airport

04:00 AM CST 15 November 2019
Disclaimer

This table is a summary of hourly weather conditions for the past 24 hours.
Please note that these observations might not always be representative of weather conditions over their associated marine area.

Date / Time
(CST)
Wind(knots) Conditions Visibility(km) Pressure(kPa) Air tempC) Relative humidity(%) Dew pointC) Wind Chill
15 November 2019
4:00 NNW 25 gust 31 Drifting Snow 2 101.4 -19 84 -21 -33
3:00 NNW 25 gust 33 Drifting Snow 1 101.4 -19 85 -20 -33
2:00 NNW 25 gust 32 Drifting Snow 1 101.2 -18 85 -20 -32
1:00 NNW 23 gust 28 Blowing Snow 0.8 101.1 -18 86 -20 -32
0:00 NNW 27 gust 35 Blowing Snow 0.6 101.0 -18 85 -20 -33
14 November 2019
23:00 NNW 28 Blowing Snow 0.8 101.0 -18 85 -20 -33
22:00 NW 26 gust 32 Drifting Snow 1 100.9 -18 84 -21 -33
21:00 NW 25 gust 31 Haze 10 100.9 -19 79 -22 -34
20:00 WNW 25 Clear 16 100.9 -21 76 -24 -36
19:00 WNW 24 gust 29 Clear 16 100.9 -21 76 -25 -37
18:00 WNW 26 gust 32 Clear 16 100.9 -21 76 -25 -37
17:00 WNW 24 Ice Crystals 24 100.9 -21 76 -25 -36
16:00 NW 21 gust 27 Ice Crystals 24 100.9 -21 77 -24 -35
15:00 NW 23 Ice Crystals 24 100.8 -21 77 -24 -36
14:00 NW 23 Ice Crystals 24 100.8 -21 77 -24 -36
13:00 NW 23 Ice Crystals 24 100.7 -21 77 -24 -36
12:00 NW 22 Ice Crystals 24 100.6 -21 77 -24 -36
11:00 NW 19 gust 25 Ice Crystals 24 100.6 -21 78 -24 -35
10:00 NW 19 Ice Crystals 6 100.6 -21 78 -24 -35
9:00 NW 18 Ice Crystals 16 100.6 -21 78 -23 -34
8:00 NNW 17 gust 24 Blowing Snow 3 100.5 -20 80 -23 -33
7:00 NW 19 gust 24 Blowing Snow 2 100.5 -19 81 -21 -32
6:00 NW 23 gust 29 Drifting Snow 2 100.5 -18 83 -21 -32
5:00 WNW 9 Cloudy 16 100.5 -17 82 -20 -26
4:00 NNW 11 Cloudy 16 100.5 -17 78 -20 -27

Zoom-in to make a selection

Map of Hudson - Hudson Bay marine weather areas Arviat Airport Baker Lake Airport Chesterfield Inlet Airport Coral Harbour Airport Rankin Inlet Airport Sanikiluaq Airport Whale Cove Airport Cape Dorset Airport Iqaluit Airport Wager Bay Kimmirut Airport Churchill Airport Fort Severn Airport Peawanuck Airport Moosonee Airport Eastmain Airport La Grande Rivière Airport Waskaganish Airport Wemindji Airport Akulivik Airport Inukjuak Airport Ivujivik Airport Kuujjuarapik Airport Puvirnituq Airport Umiujaq Airport Aupaluk Airport Kangiqsujuaq Airport Kangirsuk Airport Kangiqsualujjuaq Airport Kuujjuaq Airport Quaqtaq Airport Salluit Airport Tasiujaq Airport Cape Kakkiviak
Legend:
buoy Buoy
land station Land Station

Hudson - Hudson Bay Area

Another Region

What we are doing

Date modified: